createdAt,value
2018-04-01T00:01:05.997Z,5.40
2018-04-01T00:03:32.977Z,5.40
2018-04-01T00:06:00.577Z,5.50
2018-04-01T00:08:27.514Z,5.40
2018-04-01T00:10:54.610Z,5.40
2018-04-01T00:13:21.230Z,5.40
2018-04-01T00:15:47.850Z,5.40
2018-04-01T00:18:14.432Z,5.40
2018-04-01T00:20:41.054Z,5.40
2018-04-01T00:23:07.620Z,5.30
2018-04-01T00:25:34.188Z,5.40
2018-04-01T00:28:02.078Z,5.20
2018-04-01T00:30:29.111Z,5.30
2018-04-01T00:32:56.533Z,5.30
2018-04-01T00:35:23.995Z,5.30
2018-04-01T00:37:51.808Z,5.60
2018-04-01T00:40:19.836Z,5.60
2018-04-01T00:42:46.508Z,5.40
2018-04-01T00:45:13.086Z,5.50
2018-04-01T00:47:39.688Z,5.50
2018-04-01T00:50:06.326Z,5.50
2018-04-01T00:52:32.948Z,5.60
2018-04-01T00:54:59.978Z,5.80
2018-04-01T00:57:27.455Z,5.70
2018-04-01T00:59:54.464Z,5.70
2018-04-01T01:02:21.095Z,5.70
2018-04-01T01:04:48.256Z,5.70
2018-04-01T01:07:15.762Z,5.60
2018-04-01T01:12:23.612Z,5.60
2018-04-01T01:17:17.149Z,5.70
2018-04-01T01:19:44.253Z,5.80
2018-04-01T01:22:11.659Z,5.80
2018-04-01T01:24:38.233Z,5.60
2018-04-01T01:27:05.521Z,5.50
2018-04-01T01:29:32.096Z,5.50
2018-04-01T01:31:58.658Z,5.50
2018-04-01T01:34:26.494Z,5.50
2018-04-01T01:36:53.116Z,5.40
2018-04-01T01:39:19.709Z,5.10
2018-04-01T01:41:46.369Z,5.10
2018-04-01T01:44:12.935Z,5.20
2018-04-01T01:46:42.509Z,5.30
2018-04-01T01:49:10.130Z,5.30
2018-04-01T01:51:37.203Z,5.40
2018-04-01T01:54:04.735Z,5.50
2018-04-01T01:56:31.370Z,5.60
2018-04-01T01:58:58.002Z,5.70
2018-04-01T02:01:24.584Z,5.60
2018-04-01T02:03:52.306Z,5.70
2018-04-01T02:06:18.865Z,5.80
2018-04-01T02:08:48.553Z,5.60
2018-04-01T02:11:16.103Z,5.70
2018-04-01T02:13:43.262Z,5.80
2018-04-01T02:16:10.602Z,5.80
2018-04-01T02:18:37.270Z,5.70
2018-04-01T02:21:04.783Z,5.60
2018-04-01T02:23:32.674Z,5.70
2018-04-01T02:28:38.229Z,5.30
2018-04-01T02:31:05.738Z,5.30
2018-04-01T02:33:32.303Z,5.20
2018-04-01T02:35:59.831Z,5.20
2018-04-01T02:38:26.450Z,5.10
2018-04-01T02:40:53.280Z,5.10
2018-04-01T02:43:21.645Z,5.10
2018-04-01T02:45:48.695Z,5.00
2018-04-01T02:48:16.240Z,5.00
2018-04-01T02:50:42.831Z,5.00
2018-04-01T02:53:09.515Z,4.70
2018-04-01T02:55:36.085Z,4.60
2018-04-01T02:58:02.662Z,4.70
2018-04-01T03:02:56.694Z,4.90
2018-04-01T03:05:24.256Z,5.00
2018-04-01T03:07:50.920Z,5.10
2018-04-01T03:10:17.478Z,5.20
2018-04-01T03:12:44.043Z,5.20
2018-04-01T03:15:10.738Z,5.30
2018-04-01T03:17:37.295Z,5.30
2018-04-01T03:20:06.813Z,5.30
2018-04-01T03:22:33.766Z,5.30
2018-04-01T03:25:00.338Z,5.30
2018-04-01T03:27:26.957Z,5.20
2018-04-01T03:29:53.613Z,5.20
2018-04-01T03:32:21.044Z,5.20
2018-04-01T03:37:28.231Z,5.30
2018-04-01T03:39:54.824Z,5.40
2018-04-01T03:42:21.798Z,5.50
2018-04-01T03:44:48.467Z,5.40
2018-04-01T03:47:15.067Z,5.50
2018-04-01T03:49:42.084Z,5.40
2018-04-01T03:52:08.648Z,5.40
2018-04-01T03:54:35.201Z,5.30
2018-04-01T03:57:01.805Z,5.30
2018-04-01T03:59:29.689Z,5.30
2018-04-01T04:01:56.322Z,5.30
2018-04-01T04:04:22.887Z,5.30
2018-04-01T04:06:49.507Z,5.20
2018-04-01T04:09:16.931Z,5.20
2018-04-01T04:11:43.519Z,5.30
2018-04-01T04:14:11.159Z,5.30
2018-04-01T04:16:37.725Z,5.20
2018-04-01T04:19:04.289Z,5.20
2018-04-01T04:21:31.794Z,5.20
2018-04-01T04:23:58.379Z,5.20
2018-04-01T04:28:52.291Z,5.10
2018-04-01T04:31:18.873Z,5.00
2018-04-01T04:33:45.882Z,4.90
2018-04-01T04:36:12.524Z,4.80
2018-04-01T04:38:39.421Z,4.70
2018-04-01T04:41:05.930Z,4.60
2018-04-01T04:43:32.576Z,4.60
2018-04-01T04:45:59.994Z,4.50
2018-04-01T04:48:26.572Z,4.50
2018-04-01T04:50:54.069Z,4.40
2018-04-01T04:53:20.648Z,4.50
2018-04-01T04:55:48.174Z,4.60
2018-04-01T04:58:14.844Z,4.50
2018-04-01T05:03:20.984Z,4.30
2018-04-01T05:05:48.413Z,4.40
2018-04-01T05:08:14.976Z,4.50
2018-04-01T05:10:41.615Z,4.50
2018-04-01T05:13:09.054Z,4.50
2018-04-01T05:15:35.619Z,4.40
2018-04-01T05:18:02.255Z,4.40
2018-04-01T05:20:29.658Z,4.30
2018-04-01T05:22:56.231Z,4.20
2018-04-01T05:25:23.702Z,4.40
2018-04-01T05:27:50.551Z,4.50
2018-04-01T05:30:17.143Z,4.60
2018-04-01T05:32:43.786Z,4.60
2018-04-01T05:35:11.841Z,4.50
2018-04-01T05:37:38.457Z,4.30
2018-04-01T05:40:05.104Z,4.30
2018-04-01T05:42:32.565Z,4.30
2018-04-01T05:44:59.136Z,4.30
2018-04-01T05:47:25.769Z,4.30
2018-04-01T05:49:53.177Z,4.30
2018-04-01T05:52:20.554Z,4.40
2018-04-01T05:54:48.192Z,4.30
2018-04-01T05:57:16.199Z,4.20
2018-04-01T05:59:43.777Z,4.20
2018-04-01T06:02:10.448Z,4.30
2018-04-01T06:04:38.209Z,4.30
2018-04-01T06:07:05.782Z,4.30
2018-04-01T06:09:32.411Z,4.40
2018-04-01T06:11:58.998Z,4.50
2018-04-01T06:14:25.583Z,4.50
2018-04-01T06:16:52.293Z,4.50
2018-04-01T06:19:19.307Z,4.60
2018-04-01T06:21:45.886Z,4.70
2018-04-01T06:24:13.246Z,4.80
2018-04-01T06:26:39.915Z,4.90
2018-04-01T06:31:47.521Z,5.10
2018-04-01T06:34:14.098Z,5.30
2018-04-01T06:36:40.718Z,5.30
2018-04-01T06:39:08.299Z,5.10
2018-04-01T06:41:34.893Z,5.10
2018-04-01T06:44:01.474Z,5.00
2018-04-01T06:46:28.153Z,5.10
2018-04-01T06:48:54.714Z,5.20
2018-04-01T06:51:21.297Z,5.30
2018-04-01T06:53:48.892Z,5.30
2018-04-01T06:58:42.865Z,5.20
2018-04-01T07:01:10.351Z,5.20
2018-04-01T07:03:36.956Z,5.10
2018-04-01T07:06:04.531Z,4.90
2018-04-01T07:08:31.250Z,5.00
2018-04-01T07:10:57.873Z,5.10
2018-04-01T07:13:24.475Z,5.40
2018-04-01T07:15:52.119Z,5.40
2018-04-01T07:18:18.754Z,5.40
2018-04-01T07:20:46.205Z,5.70
2018-04-01T07:23:12.825Z,5.80
2018-04-01T07:28:06.314Z,5.90
2018-04-01T07:30:34.093Z,5.80
2018-04-01T07:33:00.672Z,5.80
2018-04-01T07:35:28.125Z,5.80
2018-04-01T07:37:54.766Z,5.80
2018-04-01T07:40:22.291Z,5.90
2018-04-01T07:42:52.077Z,6.00
2018-04-01T07:45:19.746Z,6.00
2018-04-01T07:47:47.097Z,5.90
2018-04-01T07:50:13.674Z,5.80
2018-04-01T07:55:20.295Z,5.90
2018-04-01T07:57:46.963Z,6.10
2018-04-01T08:00:13.521Z,6.40
2018-04-01T08:02:40.148Z,6.70
2018-04-01T08:05:06.794Z,6.90
2018-04-01T08:07:38.283Z,6.90
2018-04-01T08:10:05.838Z,7.00
2018-04-01T08:12:32.484Z,7.20
2018-04-01T08:14:59.087Z,7.20
2018-04-01T08:17:25.675Z,7.10
2018-04-01T08:19:52.311Z,6.90
2018-04-01T08:22:18.934Z,6.90
2018-04-01T08:24:45.521Z,6.60
2018-04-01T08:27:12.191Z,6.40
2018-04-01T08:29:39.158Z,6.30
2018-04-01T08:32:06.699Z,6.30
2018-04-01T08:34:33.365Z,6.20
2018-04-01T08:37:00.812Z,6.00
2018-04-01T08:39:27.378Z,6.00
2018-04-01T08:41:54.063Z,6.00
2018-04-01T08:44:20.643Z,6.20
2018-04-01T08:46:47.216Z,6.20
2018-04-01T08:49:13.856Z,5.90
2018-04-01T08:51:40.438Z,6.10
2018-04-01T08:54:07.073Z,6.20
2018-04-01T08:56:33.714Z,6.20
2018-04-01T08:59:03.243Z,6.30
2018-04-01T09:01:30.297Z,6.30
2018-04-01T09:03:56.926Z,6.60
2018-04-01T09:06:23.543Z,6.70
2018-04-01T09:08:51.036Z,6.80
2018-04-01T09:11:18.687Z,7.20
2018-04-01T09:13:45.972Z,6.90
2018-04-01T09:16:12.554Z,7.00
2018-04-01T09:23:44.705Z,7.30
2018-04-01T09:26:12.113Z,7.30
2018-04-01T09:28:39.590Z,7.40
2018-04-01T09:31:06.159Z,7.50
2018-04-01T09:33:33.729Z,7.40
2018-04-01T09:36:00.336Z,7.60
2018-04-01T09:40:53.965Z,8.20
2018-04-01T09:43:21.421Z,8.40
2018-04-01T09:45:48.843Z,8.30
2018-04-01T09:48:16.278Z,7.90
2018-04-01T09:50:42.855Z,7.90
2018-04-01T09:53:10.529Z,7.60
2018-04-01T09:55:37.969Z,7.90
2018-04-01T09:58:04.562Z,8.00
2018-04-01T10:00:31.672Z,8.50
2018-04-01T10:02:58.766Z,8.70
2018-04-01T10:08:06.805Z,9.20
2018-04-01T10:10:34.943Z,8.90
2018-04-01T10:13:02.042Z,9.30
2018-04-01T10:15:29.161Z,8.90
2018-04-01T10:22:50.877Z,9.40
2018-04-01T10:25:17.929Z,10.00
2018-04-01T10:27:45.012Z,10.20
2018-04-01T10:30:12.206Z,10.80
2018-04-01T10:32:41.241Z,10.70
2018-04-01T10:35:09.070Z,10.80
2018-04-01T10:37:36.217Z,10.60
2018-04-01T10:40:03.278Z,9.90
2018-04-01T10:42:30.354Z,9.90
2018-04-01T10:44:58.424Z,10.10
2018-04-01T10:47:29.488Z,9.80
2018-04-01T10:49:57.379Z,10.20
2018-04-01T10:52:24.512Z,10.50
2018-04-01T10:54:51.453Z,10.50
2018-04-01T10:57:18.906Z,10.70
2018-04-01T10:59:45.585Z,10.80
2018-04-01T11:02:14.972Z,11.10
2018-04-01T11:04:38.768Z,11.10
2018-04-01T11:07:05.390Z,11.80
2018-04-01T11:09:32.000Z,11.80
2018-04-01T11:11:59.673Z,12.50
2018-04-01T11:14:26.336Z,12.10
2018-04-01T11:16:52.912Z,12.40
2018-04-01T11:19:19.515Z,12.80
2018-04-01T11:21:46.150Z,12.00
2018-04-01T11:24:12.723Z,12.00
2018-04-01T11:26:39.312Z,11.60
2018-04-01T11:29:05.959Z,12.00
2018-04-01T11:31:32.549Z,11.90
2018-04-01T11:36:37.240Z,12.10
2018-04-01T11:39:03.819Z,12.50
2018-04-01T11:41:30.412Z,12.60
2018-04-01T11:43:57.054Z,13.00
2018-04-01T11:46:24.528Z,12.80
2018-04-01T11:48:51.139Z,13.00
2018-04-01T11:51:17.814Z,13.10
2018-04-01T11:53:44.397Z,13.60
2018-04-01T11:56:11.752Z,12.80
2018-04-01T11:58:38.445Z,12.80
2018-04-01T12:01:05.169Z,13.00
2018-04-01T12:03:32.864Z,12.40
2018-04-01T12:05:59.502Z,12.70
2018-04-01T12:08:26.069Z,13.30
2018-04-01T12:10:53.062Z,13.20
2018-04-01T12:13:19.758Z,13.30
2018-04-01T12:15:47.254Z,13.60
2018-04-01T12:18:13.866Z,12.80
2018-04-01T12:20:40.518Z,12.90
2018-04-01T12:23:07.364Z,12.90
2018-04-01T12:25:34.958Z,13.00
2018-04-01T12:28:02.570Z,13.10
2018-04-01T12:30:29.156Z,12.30
2018-04-01T12:32:56.685Z,12.50
2018-04-01T12:35:23.360Z,13.10
2018-04-01T12:37:50.723Z,13.50
2018-04-01T12:40:17.315Z,13.30
2018-04-01T12:42:43.964Z,12.90
2018-04-01T12:45:11.001Z,13.10
2018-04-01T12:47:38.463Z,13.20
2018-04-01T12:50:06.125Z,12.70
2018-04-01T12:52:33.664Z,12.80
2018-04-01T12:55:01.251Z,12.60
2018-04-01T12:57:28.867Z,13.10
2018-04-01T13:02:35.628Z,12.40
2018-04-01T13:05:02.220Z,12.70
2018-04-01T13:07:28.852Z,12.60
2018-04-01T13:09:55.977Z,12.40
2018-04-01T13:12:23.419Z,12.60
2018-04-01T13:14:50.481Z,12.60
2018-04-01T13:17:17.366Z,12.50
2018-04-01T13:19:43.963Z,12.70
2018-04-01T13:22:11.761Z,12.60
2018-04-01T13:27:09.054Z,12.80
2018-04-01T13:29:36.949Z,13.10
2018-04-01T13:32:03.609Z,13.20
2018-04-01T13:34:31.059Z,13.60
2018-04-01T13:36:59.256Z,13.30
2018-04-01T13:39:25.922Z,13.10
2018-04-01T13:41:52.803Z,13.20
2018-04-01T13:44:19.364Z,13.40
2018-04-01T13:46:46.059Z,13.50
2018-04-01T13:49:13.846Z,13.10
2018-04-01T13:51:40.438Z,13.30
2018-04-01T13:54:07.064Z,13.30
2018-04-01T13:56:34.213Z,13.30
2018-04-01T13:59:00.781Z,13.10
2018-04-01T14:01:27.467Z,13.10
2018-04-01T14:03:54.954Z,13.20
2018-04-01T14:06:21.542Z,13.30
2018-04-01T14:08:48.179Z,13.20
2018-04-01T14:11:15.703Z,13.20
2018-04-01T14:13:42.303Z,13.10
2018-04-01T14:16:09.378Z,12.30
2018-04-01T14:21:04.629Z,12.10
2018-04-01T14:23:31.307Z,12.00
2018-04-01T14:28:37.000Z,12.20
2018-04-01T14:31:03.601Z,11.90
2018-04-01T14:33:31.090Z,11.80
2018-04-01T14:35:57.685Z,11.50
2018-04-01T14:38:24.249Z,11.80
2018-04-01T14:40:51.633Z,11.80
2018-04-01T14:43:18.367Z,11.60
2018-04-01T14:45:45.315Z,11.60
2018-04-01T14:48:11.891Z,11.30
2018-04-01T14:50:39.513Z,11.50
2018-04-01T14:53:07.091Z,11.40
2018-04-01T14:55:33.678Z,11.40
2018-04-01T14:58:01.294Z,11.40
2018-04-01T15:00:27.867Z,11.20
2018-04-01T15:05:21.493Z,11.90
2018-04-01T15:07:48.522Z,11.60
2018-04-01T15:10:15.094Z,11.60
2018-04-01T15:12:41.735Z,11.50
2018-04-01T15:15:08.359Z,11.40
2018-04-01T15:17:35.808Z,11.40
2018-04-01T15:20:03.411Z,11.30
2018-04-01T15:22:30.239Z,11.50
2018-04-01T15:24:56.816Z,11.20
2018-04-01T15:27:23.805Z,11.20
2018-04-01T15:29:50.433Z,11.50
2018-04-01T15:32:18.509Z,11.50
2018-04-01T15:34:45.142Z,11.10
2018-04-01T15:37:11.711Z,11.30
2018-04-01T15:42:18.443Z,13.30
2018-04-01T15:44:48.189Z,10.90
2018-04-01T15:47:14.888Z,11.00
2018-04-01T15:49:41.514Z,11.10
2018-04-01T15:52:08.183Z,10.80
2018-04-01T15:54:35.857Z,10.70
2018-04-01T15:57:02.508Z,10.60
2018-04-01T15:59:29.078Z,10.60
2018-04-01T16:01:55.654Z,10.60
2018-04-01T16:04:22.322Z,10.50
2018-04-01T16:06:49.804Z,10.70
2018-04-01T16:09:16.655Z,10.80
2018-04-01T16:11:43.299Z,10.90
2018-04-01T16:14:10.856Z,11.00
2018-04-01T16:16:37.828Z,10.90
2018-04-01T16:19:05.329Z,10.90
2018-04-01T16:21:32.250Z,10.80
2018-04-01T16:23:59.580Z,10.70
2018-04-01T16:26:27.184Z,10.70
2018-04-01T16:28:53.825Z,10.60
2018-04-01T16:33:47.879Z,10.40
2018-04-01T16:36:14.393Z,10.40
2018-04-01T16:38:40.994Z,10.30
2018-04-01T16:41:08.550Z,10.20
2018-04-01T16:43:36.079Z,10.00
2018-04-01T16:46:02.656Z,10.10
2018-04-01T16:48:29.286Z,10.10
2018-04-01T16:50:56.269Z,10.20
2018-04-01T16:53:23.743Z,10.10
2018-04-01T16:55:50.424Z,9.80
2018-04-01T16:58:17.907Z,9.90
2018-04-01T17:00:45.074Z,9.90
2018-04-01T17:03:11.777Z,9.80
2018-04-01T17:08:18.644Z,11.60
2018-04-01T17:13:14.589Z,9.80
2018-04-01T17:15:41.308Z,10.00
2018-04-01T17:20:36.592Z,9.90
2018-04-01T17:23:03.227Z,9.90
2018-04-01T17:25:30.796Z,9.70
2018-04-01T17:27:58.329Z,9.70
2018-04-01T17:30:25.982Z,9.70
2018-04-01T17:32:53.442Z,9.70
2018-04-01T17:35:20.075Z,9.70
2018-04-01T17:37:47.249Z,9.70
2018-04-01T17:40:13.812Z,9.70
2018-04-01T17:42:40.792Z,9.80
2018-04-01T17:45:08.726Z,9.80
2018-04-01T17:47:36.423Z,9.80
2018-04-01T17:50:03.005Z,9.70
2018-04-01T17:52:29.650Z,9.70
2018-04-01T17:54:56.629Z,9.70
2018-04-01T17:57:23.166Z,9.70
2018-04-01T17:59:49.831Z,9.70
2018-04-01T18:02:17.246Z,9.60
2018-04-01T18:04:43.811Z,9.60
2018-04-01T18:07:12.377Z,9.50
2018-04-01T18:09:39.425Z,9.30
2018-04-01T18:12:06.034Z,9.20
2018-04-01T18:14:32.661Z,9.00
2018-04-01T18:17:00.302Z,9.10
2018-04-01T18:19:26.957Z,9.00
2018-04-01T18:21:54.528Z,9.00
2018-04-01T18:24:21.148Z,8.90
2018-04-01T18:26:47.721Z,8.90
2018-04-01T18:29:15.333Z,8.60
2018-04-01T18:36:49.105Z,8.60
2018-04-01T18:39:16.677Z,8.50
2018-04-01T18:41:43.801Z,8.40
2018-04-01T18:44:10.364Z,8.20
2018-04-01T18:46:36.982Z,8.30
2018-04-01T18:49:04.535Z,8.20
2018-04-01T18:51:31.147Z,8.30
2018-04-01T18:53:58.576Z,8.40
2018-04-01T18:56:26.080Z,8.40
2018-04-01T19:01:20.785Z,8.50
2018-04-01T19:03:47.429Z,8.50
2018-04-01T19:06:14.988Z,8.30
2018-04-01T19:08:41.564Z,8.10
2018-04-01T19:11:09.187Z,8.00
2018-04-01T19:13:36.558Z,7.90
2018-04-01T19:16:03.654Z,8.00
2018-04-01T19:18:30.800Z,7.80
2018-04-01T19:20:58.846Z,7.80
2018-04-01T19:23:26.872Z,7.80
2018-04-01T19:25:54.967Z,7.80
2018-04-01T19:28:22.865Z,7.60
2018-04-01T19:30:49.946Z,7.50
2018-04-01T19:33:18.040Z,7.30
2018-04-01T19:35:45.103Z,7.20
2018-04-01T19:38:13.045Z,7.20
2018-04-01T19:40:40.222Z,7.30
2018-04-01T19:43:08.250Z,7.20
2018-04-01T19:45:35.319Z,7.20
2018-04-01T19:48:02.441Z,6.90
2018-04-01T19:50:30.345Z,6.80
2018-04-01T19:52:57.413Z,6.80
2018-04-01T19:58:03.070Z,6.40
2018-04-01T20:00:31.129Z,6.50
2018-04-01T20:02:59.227Z,6.60
2018-04-01T20:05:26.303Z,6.50
2018-04-01T20:07:53.458Z,6.50
2018-04-01T20:10:21.430Z,6.60
2018-04-01T20:12:50.897Z,6.50
2018-04-01T20:15:18.436Z,6.60
2018-04-01T20:17:45.524Z,6.50
2018-04-01T20:20:12.595Z,6.50
2018-04-01T20:22:39.740Z,6.70
2018-04-01T20:25:07.816Z,6.80
2018-04-01T20:27:35.822Z,6.90
2018-04-01T20:30:02.958Z,6.90
2018-04-01T20:32:30.845Z,6.90
2018-04-01T20:34:57.913Z,7.00
2018-04-01T20:37:26.028Z,7.10
2018-04-01T20:39:53.916Z,7.00
2018-04-01T20:42:21.001Z,6.90
2018-04-01T20:47:29.070Z,6.60
2018-04-01T20:49:56.239Z,6.60
2018-04-01T20:52:23.276Z,6.50
2018-04-01T20:54:50.346Z,6.50
2018-04-01T20:57:17.476Z,6.40
2018-04-01T20:59:44.635Z,6.40
2018-04-01T21:02:12.478Z,6.40
2018-04-01T21:04:39.672Z,6.40
2018-04-01T21:07:07.583Z,6.40
2018-04-01T21:12:20.209Z,6.50
2018-04-01T21:14:47.282Z,6.50
2018-04-01T21:17:15.510Z,6.60
2018-04-01T21:19:42.631Z,6.60
2018-04-01T21:22:09.689Z,6.60
2018-04-01T21:24:38.047Z,6.60
2018-04-01T21:27:06.938Z,6.60
2018-04-01T21:32:01.789Z,6.80
2018-04-01T21:34:29.334Z,6.90
2018-04-01T21:37:00.038Z,6.90
2018-04-01T21:39:26.713Z,6.70
2018-04-01T21:41:53.855Z,6.80
2018-04-01T21:44:20.950Z,6.90
2018-04-01T21:46:48.030Z,6.90
2018-04-01T21:49:15.143Z,7.00
2018-04-01T21:51:42.207Z,6.90
2018-04-01T21:54:09.272Z,6.80
2018-04-01T21:59:04.466Z,6.70
2018-04-01T22:01:31.537Z,6.70
2018-04-01T22:03:58.652Z,6.80
2018-04-01T22:06:25.733Z,6.90
2018-04-01T22:08:52.792Z,6.80
2018-04-01T22:11:19.943Z,6.80
2018-04-01T22:13:47.023Z,6.80
2018-04-01T22:16:15.060Z,6.90
2018-04-01T22:18:42.211Z,6.80
2018-04-01T22:21:10.137Z,6.70
2018-04-01T22:26:15.822Z,6.80
2018-04-01T22:28:43.624Z,6.80
2018-04-01T22:31:10.679Z,6.80
2018-04-01T22:33:41.001Z,6.80
2018-04-01T22:36:08.115Z,6.70
2018-04-01T22:38:35.174Z,6.60
2018-04-01T22:41:02.307Z,6.60
2018-04-01T22:43:30.314Z,6.70
2018-04-01T22:45:57.395Z,6.70
2018-04-01T22:48:25.459Z,6.60
2018-04-01T22:50:53.044Z,6.60
2018-04-01T22:55:47.365Z,6.50
2018-04-01T22:58:14.498Z,6.50
2018-04-01T23:05:36.924Z,6.30
2018-04-01T23:08:04.982Z,6.20
2018-04-01T23:10:33.088Z,6.20
2018-04-01T23:13:00.156Z,6.10
2018-04-01T23:17:54.466Z,6.00
2018-04-01T23:20:21.507Z,6.10
2018-04-01T23:22:48.581Z,6.10
2018-04-01T23:25:15.713Z,6.10
2018-04-01T23:27:42.795Z,6.20
2018-04-01T23:30:10.719Z,6.20
2018-04-01T23:32:37.835Z,6.20
2018-04-01T23:35:04.922Z,6.20
2018-04-01T23:37:32.759Z,6.10
2018-04-01T23:39:59.883Z,6.00
2018-04-01T23:45:04.976Z,6.10
2018-04-01T23:47:32.059Z,6.10
2018-04-01T23:49:59.130Z,6.20
2018-04-01T23:52:27.182Z,5.90
2018-04-01T23:54:55.903Z,5.60
2018-04-01T23:57:22.944Z,5.40
